Ransom, Kansas
Current Conditions -  °F | °C
As of 11:15 PM on Friday 21 Nov 2014 (Local Time) from KHYS Reporting Station
Overcast Overcast  
Wind Chill: 32°   Ceiling: 100
Heat Index: 32°   Visibility: 0mi
Dew Point: 27°   Wind: 3mph
Humidity: 80%   Direction: 140°SE
Pressure: 29.99"   Gusts: NA
Location:  38.64°N, 99.93°W
Report Text: KHYS 220515Z AUTO 14003KT M1/4SM OVC001 00/M03 A2999 RMK AO1
Loading
Personal Weather Stations






























Interactive Weather Map New forecast layout! Learn more

10-Day Weather Forecast

Advertisements
Track Severe Weather on mobile